createdAt,value
2018-06-21T00:02:27.390Z,99.90
2018-06-21T00:04:55.062Z,99.90
2018-06-21T00:07:22.755Z,99.90
2018-06-21T00:09:50.478Z,99.90
2018-06-21T00:12:18.159Z,99.90
2018-06-21T00:14:45.860Z,99.90
2018-06-21T00:17:13.538Z,99.90
2018-06-21T00:19:41.222Z,99.90
2018-06-21T00:22:08.896Z,99.90
2018-06-21T00:24:36.608Z,99.90
2018-06-21T00:27:04.306Z,99.90
2018-06-21T00:29:31.986Z,99.90
2018-06-21T00:31:59.713Z,99.90
2018-06-21T00:34:27.428Z,99.90
2018-06-21T00:36:55.212Z,99.90
2018-06-21T00:39:22.918Z,99.90
2018-06-21T00:41:50.601Z,99.90
2018-06-21T00:44:18.283Z,99.90
2018-06-21T00:46:45.968Z,99.90
2018-06-21T00:49:13.681Z,99.90
2018-06-21T00:51:41.368Z,99.90
2018-06-21T00:54:09.045Z,99.90
2018-06-21T00:56:36.712Z,99.90
2018-06-21T00:59:04.594Z,99.90
2018-06-21T01:01:32.324Z,99.90
2018-06-21T01:04:00.050Z,99.90
2018-06-21T01:06:27.748Z,99.90
2018-06-21T01:08:58.963Z,99.90
2018-06-21T01:11:26.684Z,99.90
2018-06-21T01:13:54.356Z,99.90
2018-06-21T01:16:22.046Z,99.90
2018-06-21T01:18:49.802Z,99.90
2018-06-21T01:21:17.504Z,99.90
2018-06-21T01:23:45.211Z,99.90
2018-06-21T01:26:12.918Z,99.90
2018-06-21T01:28:40.612Z,99.90
2018-06-21T01:31:08.320Z,99.90
2018-06-21T01:33:36.008Z,99.90
2018-06-21T01:36:03.736Z,99.90
2018-06-21T01:38:31.414Z,99.90
2018-06-21T01:40:59.138Z,99.90
2018-06-21T01:43:26.846Z,99.90
2018-06-21T01:45:54.519Z,99.90
2018-06-21T01:48:22.200Z,99.90
2018-06-21T01:50:49.897Z,99.90
2018-06-21T01:53:17.602Z,99.90
2018-06-21T01:55:45.302Z,99.90
2018-06-21T01:58:13.000Z,99.90
2018-06-21T02:00:40.716Z,99.90
2018-06-21T02:03:08.374Z,99.90
2018-06-21T02:05:36.078Z,99.90
2018-06-21T02:08:03.847Z,99.90
2018-06-21T02:10:31.552Z,99.90
2018-06-21T02:12:59.253Z,99.90
2018-06-21T02:15:26.962Z,99.90
2018-06-21T02:17:54.660Z,99.90
2018-06-21T02:20:22.361Z,99.90
2018-06-21T02:22:50.058Z,99.90
2018-06-21T02:25:17.766Z,99.90
2018-06-21T02:27:49.099Z,99.90
2018-06-21T02:30:16.774Z,99.90
2018-06-21T02:32:44.470Z,99.90
2018-06-21T02:35:12.180Z,99.90
2018-06-21T02:37:39.880Z,99.90
2018-06-21T02:40:07.612Z,99.90
2018-06-21T02:42:35.351Z,99.90
2018-06-21T02:45:03.091Z,99.90
2018-06-21T02:47:30.807Z,99.90
2018-06-21T02:49:58.494Z,99.90
2018-06-21T02:52:26.168Z,99.90
2018-06-21T02:54:53.867Z,99.90
2018-06-21T02:57:21.576Z,99.90
2018-06-21T02:59:49.273Z,99.90
2018-06-21T03:02:17.014Z,99.90
2018-06-21T03:04:44.731Z,99.90
2018-06-21T03:07:12.412Z,99.90
2018-06-21T03:09:40.090Z,99.90
2018-06-21T03:12:12.386Z,99.90
2018-06-21T03:14:40.068Z,99.90
2018-06-21T03:17:07.810Z,99.90
2018-06-21T03:19:35.518Z,99.90
2018-06-21T03:22:03.258Z,99.90
2018-06-21T03:26:58.542Z,99.90
2018-06-21T03:29:26.218Z,99.90
2018-06-21T03:31:53.912Z,99.90
2018-06-21T03:34:21.596Z,99.90
2018-06-21T03:36:49.313Z,99.90
2018-06-21T03:39:17.024Z,99.90
2018-06-21T03:41:44.708Z,99.90
2018-06-21T03:44:12.386Z,99.90
2018-06-21T03:46:40.063Z,99.90
2018-06-21T03:49:07.846Z,99.90
2018-06-21T03:51:35.566Z,99.90
2018-06-21T03:54:03.291Z,99.90
2018-06-21T03:56:30.950Z,99.90
2018-06-21T03:58:58.644Z,99.90
2018-06-21T04:01:26.338Z,99.90
2018-06-21T04:03:54.017Z,99.90
2018-06-21T04:06:21.734Z,99.90
2018-06-21T04:08:49.562Z,99.90
2018-06-21T04:11:17.254Z,99.90
2018-06-21T04:13:44.946Z,99.90
2018-06-21T04:16:12.628Z,99.90
2018-06-21T04:18:40.340Z,99.90
2018-06-21T04:21:08.771Z,99.90
2018-06-21T04:23:36.488Z,99.90
2018-06-21T04:26:04.305Z,99.90
2018-06-21T04:28:32.012Z,99.90
2018-06-21T04:31:00.283Z,99.90
2018-06-21T04:33:28.241Z,99.90
2018-06-21T04:35:55.954Z,99.90
2018-06-21T04:38:23.646Z,99.90
2018-06-21T04:40:51.342Z,99.90
2018-06-21T04:43:19.043Z,99.90
2018-06-21T04:45:46.901Z,99.90
2018-06-21T04:48:14.579Z,99.90
2018-06-21T04:50:42.253Z,99.90
2018-06-21T04:53:09.933Z,99.90
2018-06-21T04:55:37.648Z,99.90
2018-06-21T04:58:05.555Z,99.90
2018-06-21T05:00:33.266Z,99.90
2018-06-21T05:03:01.213Z,99.90
2018-06-21T05:05:29.004Z,99.90
2018-06-21T05:07:56.706Z,99.90
2018-06-21T05:10:24.440Z,99.90
2018-06-21T05:12:52.128Z,99.90
2018-06-21T05:15:19.816Z,99.90
2018-06-21T05:17:47.524Z,99.90
2018-06-21T05:20:15.233Z,99.90
2018-06-21T05:22:42.958Z,99.90
2018-06-21T05:25:10.722Z,99.90
2018-06-21T05:30:05.991Z,99.90
2018-06-21T05:32:33.795Z,99.90
2018-06-21T05:35:01.525Z,99.90
2018-06-21T05:37:29.266Z,99.90
2018-06-21T05:39:57.003Z,99.90
2018-06-21T05:42:24.727Z,99.90
2018-06-21T05:44:52.453Z,99.90
2018-06-21T05:47:20.117Z,99.90
2018-06-21T05:49:47.801Z,99.90
2018-06-21T05:52:15.451Z,99.90
2018-06-21T05:54:43.138Z,99.90
2018-06-21T05:57:11.085Z,99.90
2018-06-21T05:59:38.737Z,99.90
2018-06-21T06:02:06.392Z,99.90
2018-06-21T06:04:34.070Z,99.90
2018-06-21T06:07:01.770Z,99.90
2018-06-21T06:09:29.464Z,99.90
2018-06-21T06:11:57.191Z,99.90
2018-06-21T06:14:24.849Z,99.90
2018-06-21T06:16:52.544Z,99.90
2018-06-21T06:19:20.201Z,97.10
2018-06-21T06:21:47.852Z,96.90
2018-06-21T06:24:15.525Z,98.80
2018-06-21T06:26:43.166Z,99.90
2018-06-21T06:29:10.805Z,99.90
2018-06-21T06:31:38.640Z,99.90
2018-06-21T06:34:06.270Z,99.90
2018-06-21T06:36:34.012Z,99.90
2018-06-21T06:39:12.814Z,99.90
2018-06-21T06:41:40.458Z,99.90
2018-06-21T06:44:08.510Z,99.90
2018-06-21T06:46:36.190Z,99.90
2018-06-21T06:49:03.918Z,99.90
2018-06-21T06:51:31.626Z,99.90
2018-06-21T06:53:59.300Z,99.90
2018-06-21T06:56:26.972Z,99.90
2018-06-21T06:58:54.616Z,99.90
2018-06-21T07:01:22.276Z,99.90
2018-06-21T07:03:50.016Z,99.90
2018-06-21T07:06:17.654Z,99.90
2018-06-21T07:08:45.332Z,99.90
2018-06-21T07:11:13.008Z,99.90
2018-06-21T07:13:40.661Z,99.90
2018-06-21T07:16:08.342Z,99.90
2018-06-21T07:18:36.007Z,99.90
2018-06-21T07:21:03.712Z,99.90
2018-06-21T07:23:31.381Z,99.90
2018-06-21T07:25:59.022Z,99.90
2018-06-21T07:28:26.707Z,99.90
2018-06-21T07:33:21.924Z,99.90
2018-06-21T07:35:49.582Z,99.90
2018-06-21T07:38:17.251Z,99.90
2018-06-21T07:40:44.938Z,99.90
2018-06-21T07:43:12.598Z,99.90
2018-06-21T07:45:40.260Z,99.30
2018-06-21T07:48:07.930Z,99.90
2018-06-21T07:50:35.582Z,99.70
2018-06-21T07:53:03.268Z,98.20
2018-06-21T07:55:30.917Z,98.20
2018-06-21T07:57:58.551Z,98.40
2018-06-21T08:00:26.221Z,98.70
2018-06-21T08:02:53.874Z,98.70
2018-06-21T08:05:21.532Z,99.60
2018-06-21T08:07:49.212Z,98.90
2018-06-21T08:10:16.866Z,99.60
2018-06-21T08:12:44.579Z,99.60
2018-06-21T08:15:12.237Z,98.20
2018-06-21T08:17:39.974Z,97.40
2018-06-21T08:20:07.680Z,96.60
2018-06-21T08:22:35.325Z,97.40
2018-06-21T08:25:03.014Z,96.30
2018-06-21T08:27:30.704Z,95.40
2018-06-21T08:29:58.365Z,95.00
2018-06-21T08:32:26.023Z,94.90
2018-06-21T08:34:53.712Z,93.70
2018-06-21T08:37:21.507Z,93.50
2018-06-21T08:39:49.151Z,92.60
2018-06-21T08:42:16.812Z,93.20
2018-06-21T08:44:44.479Z,92.70
2018-06-21T08:47:12.152Z,92.50
2018-06-21T08:49:39.832Z,92.40
2018-06-21T08:52:07.578Z,92.30
2018-06-21T08:54:35.271Z,91.80
2018-06-21T08:57:02.949Z,92.70
2018-06-21T08:59:30.670Z,92.00
2018-06-21T09:01:58.360Z,92.00
2018-06-21T09:04:26.078Z,92.00
2018-06-21T09:06:53.766Z,91.40
2018-06-21T09:09:21.528Z,91.10
2018-06-21T09:11:49.188Z,91.90
2018-06-21T09:14:16.879Z,92.10
2018-06-21T09:16:44.665Z,91.30
2018-06-21T09:19:12.365Z,92.70
2018-06-21T09:21:40.068Z,93.50
2018-06-21T09:24:07.757Z,92.00
2018-06-21T09:26:35.450Z,92.00
2018-06-21T09:29:03.150Z,92.40
2018-06-21T09:31:30.900Z,91.70
2018-06-21T09:33:58.600Z,92.20
2018-06-21T09:36:26.408Z,91.10
2018-06-21T09:38:59.626Z,90.80
2018-06-21T09:41:32.842Z,91.50
2018-06-21T09:44:06.152Z,91.10
2018-06-21T09:49:07.142Z,89.00
2018-06-21T09:51:34.840Z,90.40
2018-06-21T09:54:02.590Z,89.80
2018-06-21T09:56:30.332Z,89.40
2018-06-21T09:58:58.090Z,88.50
2018-06-21T10:01:25.812Z,88.10
2018-06-21T10:03:53.524Z,87.90
2018-06-21T10:06:21.218Z,88.00
2018-06-21T10:08:52.748Z,88.70
2018-06-21T10:11:20.440Z,88.80
2018-06-21T10:13:48.170Z,88.00
2018-06-21T10:16:15.901Z,88.20
2018-06-21T10:18:43.603Z,88.00
2018-06-21T10:21:11.306Z,87.80
2018-06-21T10:23:38.972Z,88.40
2018-06-21T10:26:06.788Z,90.20
2018-06-21T10:28:34.496Z,88.10
2018-06-21T10:31:02.217Z,87.90
2018-06-21T10:33:29.884Z,87.10
2018-06-21T10:35:57.566Z,87.90
2018-06-21T10:38:25.262Z,88.50
2018-06-21T10:40:53.802Z,88.90
2018-06-21T10:43:21.513Z,88.60
2018-06-21T10:45:49.193Z,86.90
2018-06-21T10:48:17.139Z,88.20
2018-06-21T10:50:44.870Z,88.40
2018-06-21T10:53:12.616Z,88.20
2018-06-21T10:55:40.308Z,88.10
2018-06-21T10:58:08.028Z,88.00
2018-06-21T11:00:35.700Z,87.20
2018-06-21T11:03:03.417Z,84.80
2018-06-21T11:05:31.116Z,85.90
2018-06-21T11:07:58.875Z,84.20
2018-06-21T11:10:26.658Z,84.20
2018-06-21T11:12:54.324Z,84.90
2018-06-21T11:15:22.058Z,84.60
2018-06-21T11:17:49.768Z,84.50
2018-06-21T11:20:17.442Z,83.30
2018-06-21T11:22:45.178Z,83.90
2018-06-21T11:25:12.902Z,83.80
2018-06-21T11:27:40.660Z,82.60
2018-06-21T11:30:08.397Z,83.40
2018-06-21T11:32:36.100Z,83.90
2018-06-21T11:35:03.814Z,83.50
2018-06-21T11:37:31.525Z,84.40
2018-06-21T11:39:59.264Z,83.10
2018-06-21T11:42:26.924Z,81.60
2018-06-21T11:44:54.596Z,82.40
2018-06-21T11:47:22.299Z,82.90
2018-06-21T11:49:50.037Z,81.60
2018-06-21T11:52:17.784Z,81.60
2018-06-21T11:54:45.532Z,83.00
2018-06-21T11:57:13.256Z,83.30
2018-06-21T11:59:41.026Z,83.90
2018-06-21T12:02:08.746Z,84.80
2018-06-21T12:04:36.498Z,85.10
2018-06-21T12:07:04.242Z,85.70
2018-06-21T12:09:32.058Z,86.80
2018-06-21T12:11:59.784Z,86.10
2018-06-21T12:14:27.477Z,84.70
2018-06-21T12:19:22.824Z,84.10
2018-06-21T12:21:50.561Z,84.70
2018-06-21T12:24:18.277Z,84.20
2018-06-21T12:26:46.002Z,86.30
2018-06-21T12:29:13.767Z,86.10
2018-06-21T12:31:41.486Z,84.70
2018-06-21T12:34:09.244Z,86.30
2018-06-21T12:36:37.003Z,84.40
2018-06-21T12:39:06.645Z,84.00
2018-06-21T12:41:34.410Z,84.50
2018-06-21T12:44:02.161Z,83.60
2018-06-21T12:46:29.835Z,81.50
2018-06-21T12:48:57.534Z,80.70
2018-06-21T12:51:25.229Z,80.70
2018-06-21T12:53:52.901Z,81.40
2018-06-21T12:56:20.573Z,81.00
2018-06-21T12:58:48.304Z,79.90
2018-06-21T13:01:16.005Z,80.90
2018-06-21T13:03:43.688Z,82.00
2018-06-21T13:06:11.385Z,82.10
2018-06-21T13:08:50.388Z,80.30
2018-06-21T13:12:30.162Z,81.00
2018-06-21T13:14:57.937Z,81.00
2018-06-21T13:17:28.684Z,81.20
2018-06-21T13:19:56.756Z,81.50
2018-06-21T13:22:24.836Z,76.80
2018-06-21T13:24:52.856Z,76.20
2018-06-21T13:27:20.583Z,86.30
2018-06-21T13:29:48.360Z,85.10
2018-06-21T13:32:16.242Z,82.10
2018-06-21T13:34:43.948Z,78.10
2018-06-21T13:37:11.742Z,82.50
2018-06-21T13:42:06.961Z,85.60
2018-06-21T13:44:34.642Z,82.90
2018-06-21T13:47:02.888Z,83.70
2018-06-21T13:49:31.747Z,85.70
2018-06-21T13:51:59.505Z,85.20
2018-06-21T13:54:27.454Z,87.30
2018-06-21T13:56:55.168Z,84.90
2018-06-21T13:59:22.858Z,85.50
2018-06-21T14:01:50.830Z,83.60
2018-06-21T14:04:18.532Z,85.70
2018-06-21T14:06:46.197Z,86.00
2018-06-21T14:09:13.894Z,85.60
2018-06-21T14:11:42.143Z,85.70
2018-06-21T14:14:09.976Z,86.10
2018-06-21T14:16:37.661Z,86.60
2018-06-21T14:19:05.756Z,87.40
2018-06-21T14:21:33.658Z,85.10
2018-06-21T14:24:01.455Z,85.60
2018-06-21T14:26:29.146Z,85.20
2018-06-21T14:28:56.824Z,74.90
2018-06-21T14:31:24.829Z,76.50
2018-06-21T14:33:53.021Z,78.70
2018-06-21T14:36:20.745Z,78.10
2018-06-21T14:38:48.604Z,79.00
2018-06-21T14:41:16.419Z,80.80
2018-06-21T14:43:44.139Z,81.00
2018-06-21T14:46:12.663Z,81.00
2018-06-21T14:48:40.525Z,81.30
2018-06-21T14:51:08.337Z,80.00
2018-06-21T14:53:36.279Z,79.80
2018-06-21T14:56:04.067Z,81.10
2018-06-21T14:58:31.753Z,81.40
2018-06-21T15:00:59.910Z,81.50
2018-06-21T15:03:27.610Z,81.50
2018-06-21T15:05:55.333Z,81.50
2018-06-21T15:08:23.011Z,82.60
2018-06-21T15:10:50.809Z,82.20
2018-06-21T15:13:18.498Z,82.00
2018-06-21T15:15:46.202Z,81.40
2018-06-21T15:18:13.954Z,82.30
2018-06-21T15:20:41.676Z,83.00
2018-06-21T15:23:09.463Z,83.00
2018-06-21T15:25:37.133Z,83.10
2018-06-21T15:28:04.844Z,84.80
2018-06-21T15:30:32.536Z,85.30
2018-06-21T15:33:00.256Z,84.70
2018-06-21T15:35:27.936Z,84.90
2018-06-21T15:37:55.625Z,85.60
2018-06-21T15:40:23.327Z,85.10
2018-06-21T15:42:51.013Z,82.90
2018-06-21T15:45:18.763Z,84.90
2018-06-21T15:50:14.013Z,85.90
2018-06-21T15:52:41.703Z,85.70
2018-06-21T15:55:09.439Z,85.40
2018-06-21T15:57:37.165Z,84.90
2018-06-21T16:00:05.153Z,84.90
2018-06-21T16:02:32.836Z,86.00
2018-06-21T16:05:00.501Z,84.70
2018-06-21T16:07:28.193Z,84.40
2018-06-21T16:09:55.897Z,84.40
2018-06-21T16:12:23.608Z,84.80
2018-06-21T16:14:51.336Z,84.50
2018-06-21T16:17:18.991Z,84.30
2018-06-21T16:19:46.696Z,85.20
2018-06-21T16:22:14.405Z,85.30
2018-06-21T16:24:42.106Z,85.60
2018-06-21T16:27:09.792Z,84.90
2018-06-21T16:29:37.468Z,85.40
2018-06-21T16:32:05.184Z,85.50
2018-06-21T16:34:32.900Z,86.40
2018-06-21T16:39:28.134Z,87.20
2018-06-21T16:41:55.836Z,87.40
2018-06-21T16:44:23.534Z,86.30
2018-06-21T16:46:51.228Z,86.20
2018-06-21T16:49:18.914Z,85.60
2018-06-21T16:51:46.680Z,86.30
2018-06-21T16:54:14.443Z,85.40
2018-06-21T16:56:42.137Z,84.70
2018-06-21T16:59:09.814Z,85.20
2018-06-21T17:01:37.494Z,85.60
2018-06-21T17:04:05.313Z,83.50
2018-06-21T17:06:32.985Z,83.70
2018-06-21T17:09:01.707Z,83.00
2018-06-21T17:11:29.402Z,81.60
2018-06-21T17:13:57.095Z,81.80
2018-06-21T17:16:24.779Z,81.20
2018-06-21T17:18:52.447Z,80.70
2018-06-21T17:21:20.129Z,81.20
2018-06-21T17:23:47.824Z,80.30
2018-06-21T17:26:15.526Z,80.90
2018-06-21T17:28:43.205Z,80.90
2018-06-21T17:31:10.910Z,80.70
2018-06-21T17:33:38.587Z,79.90
2018-06-21T17:36:06.339Z,79.40
2018-06-21T17:38:34.047Z,78.90
2018-06-21T17:41:01.803Z,78.10
2018-06-21T17:43:29.490Z,78.00
2018-06-21T17:45:57.290Z,80.00
2018-06-21T17:48:24.960Z,79.50
2018-06-21T17:50:52.645Z,79.40
2018-06-21T17:53:20.360Z,79.80
2018-06-21T17:55:48.032Z,78.80
2018-06-21T17:58:15.714Z,79.50
2018-06-21T18:00:43.406Z,79.30
2018-06-21T18:03:11.135Z,78.10
2018-06-21T18:05:38.834Z,78.60
2018-06-21T18:08:06.592Z,77.20
2018-06-21T18:10:34.274Z,76.20
2018-06-21T18:13:01.990Z,74.80
2018-06-21T18:15:29.794Z,74.50
2018-06-21T18:17:57.525Z,74.70
2018-06-21T18:20:25.223Z,74.00
2018-06-21T18:22:52.954Z,73.20
2018-06-21T18:25:20.717Z,72.70
2018-06-21T18:27:49.046Z,72.30
2018-06-21T18:30:16.761Z,72.60
2018-06-21T18:32:44.466Z,72.30
2018-06-21T18:35:12.175Z,71.80
2018-06-21T18:37:41.081Z,71.60
2018-06-21T18:40:09.209Z,72.00
2018-06-21T18:42:36.974Z,72.10
2018-06-21T18:45:04.857Z,72.20
2018-06-21T18:47:33.769Z,72.40
2018-06-21T18:50:01.458Z,72.00
2018-06-21T18:52:29.185Z,72.10
2018-06-21T18:54:56.846Z,72.00
2018-06-21T18:57:24.516Z,72.30
2018-06-21T18:59:52.206Z,72.70
2018-06-21T19:02:19.978Z,73.30
2018-06-21T19:04:47.689Z,73.00
2018-06-21T19:07:21.034Z,73.40
2018-06-21T19:09:54.395Z,72.80
2018-06-21T19:12:22.100Z,72.90
2018-06-21T19:14:49.821Z,73.10
2018-06-21T19:17:17.550Z,72.90
2018-06-21T19:19:45.276Z,73.20
2018-06-21T19:22:12.982Z,73.10
2018-06-21T19:24:40.776Z,73.00
2018-06-21T19:27:08.468Z,74.00
2018-06-21T19:29:36.172Z,73.40
2018-06-21T19:32:03.876Z,73.60
2018-06-21T19:34:31.591Z,73.70
2018-06-21T19:36:59.343Z,73.60
2018-06-21T19:39:28.049Z,73.00
2018-06-21T19:41:55.740Z,73.20
2018-06-21T19:44:23.448Z,73.00
2018-06-21T19:46:51.238Z,72.60
2018-06-21T19:49:19.129Z,72.70
2018-06-21T19:54:14.502Z,73.00
2018-06-21T19:56:42.196Z,73.20
2018-06-21T19:59:09.919Z,73.00
2018-06-21T20:01:37.647Z,73.10
2018-06-21T20:04:05.364Z,72.80
2018-06-21T20:06:33.085Z,73.00
2018-06-21T20:09:01.871Z,73.30
2018-06-21T20:11:36.008Z,73.50
2018-06-21T20:14:03.897Z,74.00
2018-06-21T20:16:31.591Z,74.70
2018-06-21T20:19:11.740Z,74.60
2018-06-21T20:21:39.669Z,74.70
2018-06-21T20:24:07.500Z,74.70
2018-06-21T20:26:35.192Z,74.90
2018-06-21T20:29:03.427Z,75.40
2018-06-21T20:31:31.108Z,75.20
2018-06-21T20:33:58.796Z,75.10
2018-06-21T20:36:27.764Z,74.70
2018-06-21T20:39:00.352Z,75.70
2018-06-21T20:41:28.091Z,75.80
2018-06-21T20:43:55.784Z,75.30
2018-06-21T20:46:23.512Z,75.30
2018-06-21T20:48:51.225Z,77.00
2018-06-21T20:53:46.473Z,78.60
2018-06-21T20:56:14.148Z,79.40
2018-06-21T20:58:43.900Z,78.50
2018-06-21T21:01:11.592Z,79.40
2018-06-21T21:03:39.282Z,80.20
2018-06-21T21:06:06.988Z,79.40
2018-06-21T21:08:34.780Z,79.00
2018-06-21T21:11:02.496Z,79.90
2018-06-21T21:13:30.186Z,79.40
2018-06-21T21:15:57.968Z,79.10
2018-06-21T21:18:25.848Z,78.80
2018-06-21T21:20:53.548Z,77.80
2018-06-21T21:23:21.284Z,77.50
2018-06-21T21:25:48.980Z,77.20
2018-06-21T21:28:16.733Z,78.90
2018-06-21T21:30:44.460Z,80.00
2018-06-21T21:33:12.185Z,80.40
2018-06-21T21:35:39.878Z,81.50
2018-06-21T21:38:07.744Z,80.90
2018-06-21T21:40:35.418Z,80.10
2018-06-21T21:43:03.076Z,80.50
2018-06-21T21:45:30.776Z,79.20
2018-06-21T21:47:59.612Z,79.30
2018-06-21T21:50:27.273Z,78.90
2018-06-21T21:52:54.984Z,79.30
2018-06-21T21:55:22.655Z,78.80
2018-06-21T21:57:50.461Z,79.00
2018-06-21T22:00:56.090Z,78.90
2018-06-21T22:03:23.757Z,79.00
2018-06-21T22:05:51.517Z,79.60
2018-06-21T22:08:20.236Z,79.10
2018-06-21T22:10:48.239Z,79.10
2018-06-21T22:13:16.129Z,79.50
2018-06-21T22:15:43.856Z,79.10
2018-06-21T22:18:11.790Z,78.90
2018-06-21T22:20:39.724Z,79.00
2018-06-21T22:23:07.529Z,79.20
2018-06-21T22:25:35.258Z,79.30
2018-06-21T22:28:04.030Z,79.40
2018-06-21T22:30:31.704Z,79.20
2018-06-21T22:32:59.849Z,79.00
2018-06-21T22:35:27.764Z,79.20
2018-06-21T22:37:55.676Z,79.50
2018-06-21T22:40:23.606Z,79.50
2018-06-21T22:42:51.308Z,79.60
2018-06-21T22:45:19.002Z,79.60
2018-06-21T22:47:48.756Z,79.60
2018-06-21T22:50:16.483Z,80.30
2018-06-21T22:52:44.982Z,80.50
2018-06-21T22:55:12.642Z,80.00
2018-06-21T22:57:40.438Z,80.30
2018-06-21T23:00:07.985Z,80.30
2018-06-21T23:02:35.665Z,80.50
2018-06-21T23:05:03.426Z,80.40
2018-06-21T23:07:31.121Z,80.30
2018-06-21T23:09:58.775Z,79.80
2018-06-21T23:12:26.441Z,79.70
2018-06-21T23:17:21.668Z,79.80
2018-06-21T23:19:49.323Z,80.70
2018-06-21T23:22:17.009Z,79.90
2018-06-21T23:24:44.701Z,79.60
2018-06-21T23:27:12.362Z,79.70
2018-06-21T23:29:40.039Z,79.50
2018-06-21T23:32:07.727Z,79.70
2018-06-21T23:34:35.392Z,79.60
2018-06-21T23:37:03.095Z,79.30
2018-06-21T23:39:30.907Z,80.20
2018-06-21T23:41:58.589Z,80.00
2018-06-21T23:44:26.263Z,79.90
2018-06-21T23:46:53.925Z,79.90
2018-06-21T23:49:23.802Z,79.70
2018-06-21T23:51:51.499Z,79.70
2018-06-21T23:54:19.180Z,79.80
2018-06-21T23:56:46.866Z,79.60
2018-06-21T23:59:14.650Z,79.60
